createdAt,value
2019-02-25T00:00:57.408Z,2.57
2019-02-25T00:02:07.327Z,2.62
2019-02-25T00:03:17.242Z,2.7
2019-02-25T00:04:27.159Z,2.65
2019-02-25T00:05:36.682Z,2.79
2019-02-25T00:06:46.612Z,2.82
2019-02-25T00:07:56.528Z,2.83
2019-02-25T00:09:06.462Z,2.9
2019-02-25T00:10:16.436Z,2.98
2019-02-25T00:11:26.508Z,3.03
2019-02-25T00:12:36.422Z,2.95
2019-02-25T00:13:46.344Z,2.95
2019-02-25T00:14:56.260Z,2.91
2019-02-25T00:16:06.180Z,2.97
2019-02-25T00:17:17.192Z,2.98
2019-02-25T00:18:27.122Z,3.03
2019-02-25T00:19:37.039Z,3.13
2019-02-25T00:20:46.961Z,3.16
2019-02-25T00:21:56.879Z,3.13
2019-02-25T00:23:06.800Z,3.16
2019-02-25T00:24:16.719Z,3.16
2019-02-25T00:25:26.380Z,3.18
2019-02-25T00:26:36.301Z,3.24
2019-02-25T00:27:46.226Z,3.26
2019-02-25T00:28:56.145Z,3.33
2019-02-25T00:30:06.062Z,3.22
2019-02-25T00:31:15.978Z,3.26
2019-02-25T00:32:25.898Z,3.24
2019-02-25T00:33:35.814Z,3.21
2019-02-25T00:34:45.832Z,3.19
2019-02-25T00:35:55.796Z,3.22
2019-02-25T00:37:05.714Z,3.15
2019-02-25T00:38:15.633Z,3.15
2019-02-25T00:39:25.547Z,3.05
2019-02-25T00:40:35.465Z,3.12
2019-02-25T00:41:45.381Z,3.09
2019-02-25T00:42:55.299Z,3.18
2019-02-25T00:44:05.283Z,3.21
2019-02-25T00:45:15.203Z,3.19
2019-02-25T00:46:25.220Z,3.29
2019-02-25T00:47:35.145Z,3.29
2019-02-25T00:48:45.064Z,3.26
2019-02-25T00:49:54.985Z,3.15
2019-02-25T00:51:04.907Z,3.06
2019-02-25T00:52:14.827Z,3.16
2019-02-25T00:53:24.744Z,3.09
2019-02-25T00:54:34.673Z,3.06
2019-02-25T00:55:44.598Z,3.03
2019-02-25T00:56:54.517Z,3.05
2019-02-25T00:58:04.336Z,3.06
2019-02-25T00:59:14.258Z,3.12
2019-02-25T01:00:24.184Z,2.91
2019-02-25T01:01:34.107Z,3.06
2019-02-25T01:02:43.773Z,3
2019-02-25T01:03:53.766Z,2.88
2019-02-25T01:05:03.691Z,2.95
2019-02-25T01:06:13.609Z,2.91
2019-02-25T01:07:23.582Z,2.91
2019-02-25T01:08:33.262Z,2.72
2019-02-25T01:09:43.344Z,2.72
2019-02-25T01:10:53.269Z,2.61
2019-02-25T01:12:03.191Z,2.73
2019-02-25T01:13:13.115Z,2.64
2019-02-25T01:14:23.037Z,2.73
2019-02-25T01:15:33.055Z,2.68
2019-02-25T01:16:42.973Z,2.72
2019-02-25T01:17:52.899Z,2.64
2019-02-25T01:19:02.824Z,2.58
2019-02-25T01:20:12.803Z,2.58
2019-02-25T01:21:22.830Z,2.55
2019-02-25T01:22:32.757Z,2.59
2019-02-25T01:23:42.682Z,2.68
2019-02-25T01:24:54.188Z,2.57
2019-02-25T01:26:04.112Z,2.73
2019-02-25T01:27:14.128Z,2.77
2019-02-25T01:28:24.050Z,2.76
2019-02-25T01:29:33.966Z,2.9
2019-02-25T01:30:43.897Z,2.98
2019-02-25T01:31:53.823Z,2.98
2019-02-25T01:33:03.843Z,3.09
2019-02-25T01:34:13.517Z,3.18
2019-02-25T01:35:23.438Z,3.31
2019-02-25T01:36:33.360Z,3.33
2019-02-25T01:37:43.310Z,3.34
2019-02-25T01:38:53.233Z,3.36
2019-02-25T01:40:02.908Z,3.4
2019-02-25T01:41:12.827Z,3.48
2019-02-25T01:42:22.758Z,3.36
2019-02-25T01:43:32.461Z,3.37
2019-02-25T01:44:42.479Z,3.33
2019-02-25T01:45:52.402Z,3.48
2019-02-25T01:47:02.320Z,3.49
2019-02-25T01:48:12.237Z,3.53
2019-02-25T01:49:22.200Z,3.58
2019-02-25T01:50:32.117Z,3.58
2019-02-25T01:51:42.041Z,3.53
2019-02-25T01:52:51.961Z,3.56
2019-02-25T01:54:01.888Z,3.5
2019-02-25T01:55:11.813Z,3.56
2019-02-25T01:56:21.740Z,3.55
2019-02-25T01:57:31.659Z,3.58
2019-02-25T01:58:41.582Z,3.67
2019-02-25T01:59:51.503Z,3.66
2019-02-25T02:01:01.421Z,3.58
2019-02-25T02:02:11.345Z,3.59
2019-02-25T02:03:21.262Z,3.76
2019-02-25T02:04:31.184Z,3.74
2019-02-25T02:05:41.113Z,3.82
2019-02-25T02:06:51.039Z,3.82
2019-02-25T02:08:00.953Z,3.78
2019-02-25T02:09:10.879Z,3.77
2019-02-25T02:10:20.553Z,3.82
2019-02-25T02:11:30.475Z,3.84
2019-02-25T02:12:40.408Z,3.76
2019-02-25T02:13:50.463Z,3.77
2019-02-25T02:15:00.387Z,3.56
2019-02-25T02:16:10.310Z,3.64
2019-02-25T02:17:20.233Z,3.52
2019-02-25T02:18:30.155Z,3.55
2019-02-25T02:19:40.174Z,3.5
2019-02-25T02:20:50.093Z,3.46
2019-02-25T02:22:00.010Z,3.43
2019-02-25T02:23:09.925Z,3.37
2019-02-25T02:24:19.847Z,3.4
2019-02-25T02:25:29.766Z,3.36
2019-02-25T02:26:39.433Z,3.41
2019-02-25T02:27:49.359Z,3.49
2019-02-25T02:28:59.281Z,3.59
2019-02-25T02:30:09.206Z,3.59
2019-02-25T02:31:19.153Z,3.48
2019-02-25T02:32:29.105Z,3.4
2019-02-25T02:33:39.059Z,3.46
2019-02-25T02:34:48.979Z,3.33
2019-02-25T02:35:58.923Z,3.33
2019-02-25T02:37:08.849Z,3.15
2019-02-25T02:38:18.778Z,3.09
2019-02-25T02:39:28.719Z,3.08
2019-02-25T02:40:38.660Z,3.05
2019-02-25T02:41:48.589Z,3.12
2019-02-25T02:42:58.515Z,3.19
2019-02-25T02:44:08.438Z,3.27
2019-02-25T02:45:18.368Z,3.22
2019-02-25T02:46:28.286Z,3.21
2019-02-25T02:47:38.207Z,3.3
2019-02-25T02:48:48.237Z,3.36
2019-02-25T02:49:58.182Z,3.4
2019-02-25T02:51:08.101Z,3.33
2019-02-25T02:52:18.036Z,3.31
2019-02-25T02:53:27.976Z,3.33
2019-02-25T02:54:37.998Z,3.4
2019-02-25T02:55:47.922Z,3.48
2019-02-25T02:56:57.853Z,3.46
2019-02-25T02:58:07.775Z,3.56
2019-02-25T02:59:17.704Z,3.64
2019-02-25T03:00:27.638Z,3.59
2019-02-25T03:01:37.568Z,3.67
2019-02-25T03:02:47.500Z,3.58
2019-02-25T03:03:57.443Z,3.58
2019-02-25T03:05:07.362Z,3.45
2019-02-25T03:06:17.399Z,3.18
2019-02-25T03:07:27.336Z,2.88
2019-02-25T03:08:37.266Z,2.83
2019-02-25T03:09:47.191Z,2.76
2019-02-25T03:10:57.111Z,2.64
2019-02-25T03:12:07.030Z,2.61
2019-02-25T03:13:17.068Z,2.51
2019-02-25T03:14:26.996Z,2.39
2019-02-25T03:15:36.661Z,2.32
2019-02-25T03:16:46.587Z,2.22
2019-02-25T03:17:56.504Z,2.16
2019-02-25T03:19:06.466Z,2.04
2019-02-25T03:20:16.389Z,1.92
2019-02-25T03:21:26.309Z,1.85
2019-02-25T03:22:36.228Z,1.7
2019-02-25T03:23:46.146Z,1.63
2019-02-25T03:24:56.132Z,1.64
2019-02-25T03:26:06.072Z,1.63
2019-02-25T03:27:15.746Z,1.56
2019-02-25T03:28:25.676Z,1.52
2019-02-25T03:29:35.348Z,1.48
2019-02-25T03:30:45.271Z,1.45
2019-02-25T03:31:55.269Z,1.48
2019-02-25T03:33:05.307Z,1.49
2019-02-25T03:34:15.270Z,1.38
2019-02-25T03:35:25.364Z,1.31
2019-02-25T03:36:35.280Z,1.32
2019-02-25T03:37:45.212Z,1.24
2019-02-25T03:38:55.157Z,1.24
2019-02-25T03:40:05.194Z,1.31
2019-02-25T03:41:15.135Z,1.32
2019-02-25T03:42:25.053Z,1.39
2019-02-25T03:43:34.993Z,1.38
2019-02-25T03:44:44.670Z,1.5
2019-02-25T03:45:54.601Z,1.57
2019-02-25T03:47:04.532Z,1.64
2019-02-25T03:48:14.207Z,1.74
2019-02-25T03:49:24.129Z,1.74
2019-02-25T03:50:34.050Z,1.89
2019-02-25T03:51:43.980Z,1.88
2019-02-25T03:52:54.009Z,1.92
2019-02-25T03:54:03.928Z,2.04
2019-02-25T03:55:13.854Z,2.14
2019-02-25T03:56:23.861Z,2.16
2019-02-25T03:57:36.040Z,2.19
2019-02-25T03:58:46.116Z,2.14
2019-02-25T03:59:56.030Z,2.18
2019-02-25T04:01:05.959Z,2.32
2019-02-25T04:02:15.894Z,2.52
2019-02-25T04:03:25.864Z,2.65
2019-02-25T04:04:35.784Z,2.68
2019-02-25T04:05:45.480Z,2.76
2019-02-25T04:06:55.399Z,2.72
2019-02-25T04:08:05.359Z,2.79
2019-02-25T04:09:15.083Z,2.93
2019-02-25T04:10:25.015Z,2.98
2019-02-25T04:11:34.966Z,3
2019-02-25T04:12:44.907Z,2.97
2019-02-25T04:13:54.827Z,3
2019-02-25T04:15:04.742Z,3.01
2019-02-25T04:16:14.869Z,2.97
2019-02-25T04:17:24.795Z,2.93
2019-02-25T04:18:34.716Z,2.98
2019-02-25T04:19:44.638Z,2.93
2019-02-25T04:20:54.562Z,2.94
2019-02-25T04:22:04.605Z,2.97
2019-02-25T04:23:14.529Z,2.97
2019-02-25T04:24:24.458Z,2.98
2019-02-25T04:25:34.380Z,2.88
2019-02-25T04:26:44.300Z,2.88
2019-02-25T04:27:54.321Z,2.82
2019-02-25T04:29:04.246Z,2.77
2019-02-25T04:30:13.935Z,2.72
2019-02-25T04:31:23.876Z,2.77
2019-02-25T04:32:33.553Z,2.88
2019-02-25T04:33:43.606Z,2.91
2019-02-25T04:34:53.534Z,2.9
2019-02-25T04:36:03.518Z,3.01
2019-02-25T04:37:13.448Z,3.12
2019-02-25T04:38:23.385Z,3.26
2019-02-25T04:39:33.317Z,3.29
2019-02-25T04:40:43.239Z,3.29
2019-02-25T04:41:53.183Z,3.36
2019-02-25T04:43:03.115Z,3.37
2019-02-25T04:44:13.035Z,3.36
2019-02-25T04:45:23.071Z,3.34
2019-02-25T04:46:32.996Z,3.19
2019-02-25T04:47:42.939Z,3.15
2019-02-25T04:48:52.893Z,3.09
2019-02-25T04:50:02.833Z,3.08
2019-02-25T04:51:12.782Z,2.98
2019-02-25T04:52:22.717Z,2.94
2019-02-25T04:53:32.646Z,2.98
2019-02-25T04:54:42.572Z,3
2019-02-25T04:55:52.496Z,2.93
2019-02-25T04:57:02.532Z,3
2019-02-25T04:58:12.452Z,3.08
2019-02-25T04:59:22.377Z,3.22
2019-02-25T05:00:32.300Z,3.26
2019-02-25T05:01:42.241Z,3.46
2019-02-25T05:02:52.176Z,3.67
2019-02-25T05:04:02.103Z,3.68
2019-02-25T05:05:12.034Z,3.74
2019-02-25T05:06:21.966Z,3.64
2019-02-25T05:07:31.889Z,3.7
2019-02-25T05:08:41.915Z,3.68
2019-02-25T05:09:51.873Z,3.53
2019-02-25T05:11:01.817Z,3.55
2019-02-25T05:12:11.766Z,3.49
2019-02-25T05:13:21.702Z,3.33
2019-02-25T05:14:31.730Z,3.33
2019-02-25T05:15:41.659Z,3.15
2019-02-25T05:16:51.585Z,3.15
2019-02-25T05:18:01.518Z,3.18
2019-02-25T05:19:11.441Z,3.09
2019-02-25T05:20:20.857Z,3.21
2019-02-25T05:21:30.775Z,3.11
2019-02-25T05:22:42.491Z,2.97
2019-02-25T05:23:52.464Z,3
2019-02-25T05:25:02.635Z,3.03
2019-02-25T05:26:12.659Z,3.05
2019-02-25T05:27:22.602Z,3.11
2019-02-25T05:28:32.531Z,3.08
2019-02-25T05:29:42.463Z,3.08
2019-02-25T05:30:52.399Z,3.03
2019-02-25T05:32:02.338Z,2.95
2019-02-25T05:33:12.280Z,2.93
2019-02-25T05:34:22.234Z,2.93
2019-02-25T05:35:32.177Z,3.01
2019-02-25T05:36:42.108Z,2.91
2019-02-25T05:37:52.129Z,2.98
2019-02-25T05:39:03.584Z,3.03
2019-02-25T05:40:13.585Z,2.88
2019-02-25T05:41:23.550Z,2.98
2019-02-25T05:42:33.471Z,2.91
2019-02-25T05:43:43.449Z,2.91
2019-02-25T05:44:53.381Z,2.97
2019-02-25T05:46:03.321Z,2.97
2019-02-25T05:47:13.250Z,3.03
2019-02-25T05:48:23.170Z,2.98
2019-02-25T05:49:33.098Z,3.01
2019-02-25T05:50:43.020Z,2.93
2019-02-25T05:51:54.809Z,2.95
2019-02-25T05:53:05.021Z,2.95
2019-02-25T05:54:14.729Z,3
2019-02-25T05:55:24.765Z,2.93
2019-02-25T05:56:34.693Z,2.75
2019-02-25T05:57:44.624Z,2.73
2019-02-25T05:58:54.545Z,2.72
2019-02-25T06:00:04.470Z,2.7
2019-02-25T06:01:14.400Z,2.82
2019-02-25T06:02:24.331Z,2.77
2019-02-25T06:03:34.261Z,2.87
2019-02-25T06:04:44.182Z,2.88
2019-02-25T06:05:54.123Z,2.77
2019-02-25T06:07:04.049Z,2.76
2019-02-25T06:08:15.771Z,2.73
2019-02-25T06:09:25.701Z,2.77
2019-02-25T06:10:35.624Z,2.73
2019-02-25T06:11:45.553Z,2.8
2019-02-25T06:12:55.474Z,2.79
2019-02-25T06:14:05.403Z,2.85
2019-02-25T06:15:15.342Z,2.88
2019-02-25T06:16:25.278Z,2.87
2019-02-25T06:17:35.222Z,2.9
2019-02-25T06:18:45.140Z,2.9
2019-02-25T06:19:55.078Z,2.91
2019-02-25T06:21:05.038Z,2.88
2019-02-25T06:22:14.960Z,2.98
2019-02-25T06:23:24.880Z,2.9
2019-02-25T06:24:34.906Z,2.97
2019-02-25T06:25:44.834Z,3
2019-02-25T06:26:54.756Z,3
2019-02-25T06:28:04.676Z,3.05
2019-02-25T06:29:14.596Z,3.12
2019-02-25T06:30:24.678Z,3.19
2019-02-25T06:31:34.607Z,3.16
2019-02-25T06:32:44.549Z,3.15
2019-02-25T06:33:54.476Z,3.16
2019-02-25T06:35:04.399Z,3.05
2019-02-25T06:36:14.435Z,2.97
2019-02-25T06:37:24.121Z,2.95
2019-02-25T06:38:34.055Z,2.88
2019-02-25T06:39:43.983Z,2.91
2019-02-25T06:40:53.913Z,2.91
2019-02-25T06:42:03.941Z,2.98
2019-02-25T06:43:13.862Z,2.97
2019-02-25T06:44:23.782Z,2.95
2019-02-25T06:45:35.942Z,2.98
2019-02-25T06:46:45.870Z,2.94
2019-02-25T06:47:55.815Z,2.94
2019-02-25T06:49:05.733Z,2.88
2019-02-25T06:50:15.658Z,2.91
2019-02-25T06:51:25.585Z,2.94
2019-02-25T06:52:35.507Z,2.9
2019-02-25T06:53:45.442Z,2.93
2019-02-25T06:54:55.362Z,2.87
2019-02-25T06:56:05.390Z,2.83
2019-02-25T06:57:15.359Z,2.9
2019-02-25T06:58:25.668Z,2.87
2019-02-25T06:59:35.589Z,2.73
2019-02-25T07:00:45.512Z,2.69
2019-02-25T07:01:55.433Z,2.61
2019-02-25T07:03:05.358Z,2.68
2019-02-25T07:04:15.281Z,2.73
2019-02-25T07:05:25.303Z,2.88
2019-02-25T07:06:35.220Z,2.87
2019-02-25T07:07:45.141Z,2.9
2019-02-25T07:08:55.065Z,3
2019-02-25T07:10:05.141Z,3.06
2019-02-25T07:11:15.063Z,3.15
2019-02-25T07:12:25.010Z,3.18
2019-02-25T07:13:34.925Z,3.21
2019-02-25T07:14:44.875Z,3.26
2019-02-25T07:15:55.134Z,3.27
2019-02-25T07:17:05.114Z,3.22
2019-02-25T07:18:15.041Z,3.34
2019-02-25T07:19:24.963Z,3.31
2019-02-25T07:20:34.892Z,3.33
2019-02-25T07:21:44.823Z,3.36
2019-02-25T07:22:54.794Z,3.33
2019-02-25T07:24:04.775Z,3.41
2019-02-25T07:25:14.698Z,3.37
2019-02-25T07:26:24.641Z,3.33
2019-02-25T07:27:35.247Z,3.41
2019-02-25T07:28:47.179Z,3.36
2019-02-25T07:29:57.109Z,3.33
2019-02-25T07:31:07.026Z,3.4
2019-02-25T07:32:16.941Z,3.37
2019-02-25T07:33:26.917Z,3.34
2019-02-25T07:34:36.938Z,3.46
2019-02-25T07:35:46.658Z,3.4
2019-02-25T07:36:56.608Z,3.55
2019-02-25T07:38:06.528Z,3.59
2019-02-25T07:39:16.540Z,3.56
2019-02-25T07:40:26.515Z,3.66
2019-02-25T07:41:38.159Z,3.66
2019-02-25T07:42:48.201Z,3.68
2019-02-25T07:43:58.122Z,3.64
2019-02-25T07:45:08.047Z,3.77
2019-02-25T07:46:18.015Z,3.73
2019-02-25T07:47:27.940Z,3.71
2019-02-25T07:48:37.855Z,3.55
2019-02-25T07:49:49.945Z,3.63
2019-02-25T07:50:59.867Z,3.58
2019-02-25T07:52:09.892Z,3.49
2019-02-25T07:53:19.814Z,3.59
2019-02-25T07:54:29.730Z,3.58
2019-02-25T07:55:39.653Z,3.53
2019-02-25T07:56:49.570Z,3.55
2019-02-25T07:57:59.597Z,3.61
2019-02-25T07:59:09.528Z,3.58
2019-02-25T08:00:19.452Z,3.68
2019-02-25T08:01:29.378Z,3.73
2019-02-25T08:02:39.300Z,3.68
2019-02-25T08:03:49.268Z,3.76
2019-02-25T08:04:59.191Z,3.82
2019-02-25T08:06:09.111Z,3.89
2019-02-25T08:07:19.672Z,4.09
2019-02-25T08:08:29.592Z,4.07
2019-02-25T08:09:39.566Z,4.2
2019-02-25T08:10:49.483Z,4.22
2019-02-25T08:11:59.403Z,4.34
2019-02-25T08:13:09.328Z,4.32
2019-02-25T08:14:19.244Z,4.34
2019-02-25T08:15:29.321Z,4.39
2019-02-25T08:16:39.243Z,4.4
2019-02-25T08:17:49.169Z,4.34
2019-02-25T08:18:59.089Z,4.42
2019-02-25T08:20:09.017Z,4.4
2019-02-25T08:21:19.045Z,4.45
2019-02-25T08:22:28.978Z,4.39
2019-02-25T08:23:38.901Z,4.4
2019-02-25T08:24:48.817Z,4.42
2019-02-25T08:25:58.737Z,4.31
2019-02-25T08:27:08.752Z,4.39
2019-02-25T08:28:18.676Z,4.4
2019-02-25T08:29:28.594Z,4.42
2019-02-25T08:30:38.521Z,4.32
2019-02-25T08:31:48.444Z,4.3
2019-02-25T08:32:58.426Z,4.32
2019-02-25T08:34:08.372Z,4.31
2019-02-25T08:35:26.009Z,4.3
2019-02-25T08:36:37.531Z,4.4
2019-02-25T08:37:47.567Z,4.43
2019-02-25T08:38:57.540Z,4.43
2019-02-25T08:40:07.478Z,4.43
2019-02-25T08:41:19.228Z,4.49
2019-02-25T08:42:31.034Z,4.4
2019-02-25T08:43:41.050Z,4.46
2019-02-25T08:44:51.019Z,4.48
2019-02-25T08:46:00.938Z,4.5
2019-02-25T08:47:10.614Z,4.5
2019-02-25T08:48:20.537Z,4.39
2019-02-25T08:49:30.461Z,4.46
2019-02-25T08:50:40.480Z,4.32
2019-02-25T08:51:50.401Z,4.34
2019-02-25T08:53:00.330Z,4.36
2019-02-25T08:54:10.317Z,4.32
2019-02-25T08:55:20.243Z,4.39
2019-02-25T08:56:30.314Z,4.4
2019-02-25T08:57:40.244Z,4.36
2019-02-25T08:58:50.192Z,4.32
2019-02-25T09:00:00.114Z,4.32
2019-02-25T09:01:10.040Z,4.3
2019-02-25T09:02:20.896Z,4.22
2019-02-25T09:03:30.832Z,4.24
2019-02-25T09:04:40.769Z,4.13
2019-02-25T09:05:50.690Z,4.1
2019-02-25T09:07:00.395Z,4.28
2019-02-25T09:08:10.377Z,4.28
2019-02-25T09:09:20.347Z,4.25
2019-02-25T09:10:30.271Z,4.25
2019-02-25T09:11:40.203Z,4.3
2019-02-25T09:12:51.396Z,4.3
2019-02-25T09:14:01.423Z,4.34
2019-02-25T09:15:11.136Z,4.31
2019-02-25T09:16:21.066Z,4.42
2019-02-25T09:17:31.004Z,4.56
2019-02-25T09:18:40.928Z,4.52
2019-02-25T09:19:50.899Z,4.49
2019-02-25T09:21:00.846Z,4.63
2019-02-25T09:22:10.765Z,4.61
2019-02-25T09:23:20.687Z,4.71
2019-02-25T09:24:30.604Z,4.83
2019-02-25T09:25:40.627Z,4.95
2019-02-25T09:26:50.553Z,5.01
2019-02-25T09:28:00.475Z,5.07
2019-02-25T09:29:10.397Z,5.08
2019-02-25T09:30:20.329Z,5.2
2019-02-25T09:31:30.355Z,5.28
2019-02-25T09:32:40.295Z,5.23
2019-02-25T09:33:50.227Z,5.31
2019-02-25T09:35:00.279Z,5.28
2019-02-25T09:36:10.212Z,5.37
2019-02-25T09:37:20.250Z,5.41
2019-02-25T09:38:30.179Z,5.52
2019-02-25T09:39:40.099Z,5.49
2019-02-25T09:40:50.025Z,5.58
2019-02-25T09:42:01.957Z,5.52
2019-02-25T09:43:11.812Z,5.55
2019-02-25T09:44:21.733Z,5.65
2019-02-25T09:45:31.661Z,5.7
2019-02-25T09:46:41.584Z,5.65
2019-02-25T09:47:51.537Z,5.76
2019-02-25T09:49:01.511Z,5.7
2019-02-25T09:50:11.435Z,5.76
2019-02-25T09:51:21.363Z,5.79
2019-02-25T09:52:31.295Z,5.8
2019-02-25T09:53:41.219Z,5.72
2019-02-25T09:54:50.946Z,5.72
2019-02-25T09:56:00.878Z,5.76
2019-02-25T09:57:10.807Z,5.69
2019-02-25T09:58:20.738Z,5.84
2019-02-25T09:59:30.669Z,5.83
2019-02-25T10:00:40.637Z,5.83
2019-02-25T10:01:51.464Z,5.72
2019-02-25T10:03:01.396Z,5.79
2019-02-25T10:04:13.484Z,5.72
2019-02-25T10:05:23.408Z,5.79
2019-02-25T10:06:33.431Z,5.88
2019-02-25T10:07:43.377Z,5.97
2019-02-25T10:08:53.315Z,6.07
2019-02-25T10:10:03.333Z,6.02
2019-02-25T10:11:13.254Z,6.07
2019-02-25T10:12:23.331Z,6.12
2019-02-25T10:13:33.283Z,6.1
2019-02-25T10:14:43.227Z,5.98
2019-02-25T10:15:54.795Z,6.06
2019-02-25T10:17:04.736Z,6.12
2019-02-25T10:18:14.726Z,6.16
2019-02-25T10:19:24.650Z,6.17
2019-02-25T10:20:34.584Z,6.15
2019-02-25T10:21:44.515Z,6.26
2019-02-25T10:22:54.436Z,6.17
2019-02-25T10:24:04.462Z,6.29
2019-02-25T10:25:14.385Z,6.2
2019-02-25T10:26:24.340Z,6.16
2019-02-25T10:27:34.285Z,6.17
2019-02-25T10:28:44.212Z,6.25
2019-02-25T10:29:54.243Z,6.25
2019-02-25T10:31:04.175Z,6.35
2019-02-25T10:32:14.097Z,6.35
2019-02-25T10:33:24.025Z,6.26
2019-02-25T10:34:33.949Z,6.2
2019-02-25T10:35:43.920Z,6.22
2019-02-25T10:36:55.527Z,6.22
2019-02-25T10:38:07.476Z,6.26
2019-02-25T10:39:22.101Z,6.31
2019-02-25T10:40:32.449Z,6.26
2019-02-25T10:41:42.482Z,6.25
2019-02-25T10:42:52.409Z,6.34
2019-02-25T10:44:06.825Z,6.28
2019-02-25T10:45:18.406Z,6.38
2019-02-25T10:46:28.330Z,6.36
2019-02-25T10:47:38.349Z,6.28
2019-02-25T10:48:59.674Z,6.38
2019-02-25T10:50:18.927Z,6.38
2019-02-25T10:51:28.849Z,6.35
2019-02-25T10:52:48.953Z,6.36
2019-02-25T10:54:08.375Z,6.47
2019-02-25T10:55:19.862Z,6.36
2019-02-25T10:56:30.782Z,6.44
2019-02-25T10:57:40.801Z,6.49
2019-02-25T10:58:50.719Z,6.49
2019-02-25T11:00:02.665Z,6.15
2019-02-25T11:01:24.524Z,5.84
2019-02-25T11:02:43.783Z,5.65
2019-02-25T11:03:59.162Z,5.51
2019-02-25T11:05:09.087Z,5.36
2019-02-25T11:06:19.005Z,5.12
2019-02-25T11:07:34.823Z,4.78
2019-02-25T11:08:50.572Z,4.42
2019-02-25T11:10:00.498Z,4.27
2019-02-25T11:11:10.426Z,4.1
2019-02-25T11:12:25.654Z,3.81
2019-02-25T11:13:41.258Z,3.77
2019-02-25T11:14:51.236Z,3.76
2019-02-25T11:16:01.170Z,3.61
2019-02-25T11:17:11.091Z,3.58
2019-02-25T11:18:30.705Z,3.58
2019-02-25T11:19:40.725Z,3.68
2019-02-25T11:20:50.400Z,3.82
2019-02-25T11:22:00.322Z,3.78
2019-02-25T11:23:16.967Z,3.81
2019-02-25T11:24:30.300Z,3.84
2019-02-25T11:25:40.225Z,3.89
2019-02-25T11:26:50.147Z,3.96
2019-02-25T11:28:03.133Z,4.04
2019-02-25T11:29:30.767Z,4.14
2019-02-25T11:30:42.597Z,4.25
2019-02-25T11:32:00.422Z,4.31
2019-02-25T11:33:10.105Z,4.43
2019-02-25T11:34:20.030Z,4.58
2019-02-25T11:35:29.959Z,4.5
2019-02-25T11:36:44.504Z,4.67
2019-02-25T11:38:04.190Z,4.79
2019-02-25T11:39:14.459Z,4.87
2019-02-25T11:40:26.010Z,4.97
2019-02-25T11:41:45.812Z,5
2019-02-25T11:42:55.792Z,5.08
2019-02-25T11:44:05.723Z,5.16
2019-02-25T11:45:15.665Z,5.2
2019-02-25T11:46:25.594Z,5.26
2019-02-25T11:47:35.622Z,5.31
2019-02-25T11:48:45.552Z,5.46
2019-02-25T11:49:55.785Z,5.46
2019-02-25T11:51:05.708Z,5.51
2019-02-25T11:52:15.643Z,5.51
2019-02-25T11:53:25.615Z,5.56
2019-02-25T11:54:35.539Z,5.64
2019-02-25T11:55:45.470Z,5.69
2019-02-25T11:56:55.407Z,5.64
2019-02-25T11:58:05.341Z,5.64
2019-02-25T11:59:15.317Z,5.59
2019-02-25T12:00:25.249Z,5.62
2019-02-25T12:01:35.182Z,5.72
2019-02-25T12:02:45.156Z,5.77
2019-02-25T12:03:55.121Z,5.7
2019-02-25T12:05:05.161Z,5.77
2019-02-25T12:06:15.098Z,5.8
2019-02-25T12:07:25.028Z,5.72
2019-02-25T12:08:34.955Z,5.69
2019-02-25T12:09:44.880Z,5.77
2019-02-25T12:10:54.859Z,5.7
2019-02-25T12:12:04.788Z,5.7
2019-02-25T12:13:14.710Z,5.65
2019-02-25T12:14:24.647Z,5.65
2019-02-25T12:15:34.570Z,5.58
2019-02-25T12:16:44.595Z,5.55
2019-02-25T12:17:54.515Z,5.37
2019-02-25T12:19:04.439Z,5.12
2019-02-25T12:20:23.127Z,4.82
2019-02-25T12:21:33.050Z,4.84
2019-02-25T12:22:43.048Z,4.68
2019-02-25T12:23:52.983Z,4.45
2019-02-25T12:25:02.903Z,4.38
2019-02-25T12:26:12.828Z,4.32
2019-02-25T12:27:22.748Z,4.3
2019-02-25T12:28:32.771Z,4.22
2019-02-25T12:29:42.859Z,4.22
2019-02-25T12:30:52.801Z,4.2
2019-02-25T12:32:02.727Z,4.2
2019-02-25T12:33:12.679Z,4.09
2019-02-25T12:34:22.707Z,3.96
2019-02-25T12:35:32.628Z,3.96
2019-02-25T12:36:42.554Z,3.78
2019-02-25T12:37:52.485Z,3.58
2019-02-25T12:39:02.154Z,3.45
2019-02-25T12:40:12.177Z,3.37
2019-02-25T12:41:22.098Z,3.49
2019-02-25T12:42:32.656Z,3.56
2019-02-25T12:43:42.577Z,3.61
2019-02-25T12:44:52.505Z,3.61
2019-02-25T12:46:02.586Z,3.66
2019-02-25T12:47:12.510Z,3.61
2019-02-25T12:48:22.794Z,3.67
2019-02-25T12:49:32.779Z,3.7
2019-02-25T12:50:42.764Z,3.76
2019-02-25T12:51:52.694Z,3.68
2019-02-25T12:53:02.617Z,3.67
2019-02-25T12:54:12.592Z,3.66
2019-02-25T12:55:22.517Z,3.68
2019-02-25T12:56:32.441Z,3.81
2019-02-25T12:57:42.416Z,3.82
2019-02-25T12:58:52.349Z,3.94
2019-02-25T13:00:02.274Z,3.86
2019-02-25T13:01:12.211Z,3.95
2019-02-25T13:02:22.143Z,4.02
2019-02-25T13:03:32.171Z,3.92
2019-02-25T13:04:42.102Z,3.91
2019-02-25T13:05:52.044Z,3.88
2019-02-25T13:07:01.984Z,3.84
2019-02-25T13:08:11.919Z,3.71
2019-02-25T13:09:21.949Z,3.68
2019-02-25T13:10:31.886Z,3.66
2019-02-25T13:11:42.435Z,3.59
2019-02-25T13:12:54.269Z,3.52
2019-02-25T13:14:04.212Z,3.56
2019-02-25T13:15:18.368Z,3.66
2019-02-25T13:16:28.305Z,3.74
2019-02-25T13:17:38.236Z,3.82
2019-02-25T13:18:48.172Z,3.78
2019-02-25T13:19:58.108Z,3.81
2019-02-25T13:21:08.093Z,3.78
2019-02-25T13:22:18.037Z,3.81
2019-02-25T13:23:27.998Z,3.82
2019-02-25T13:24:41.896Z,3.94
2019-02-25T13:25:51.826Z,3.92
2019-02-25T13:27:05.734Z,3.94
2019-02-25T13:28:20.930Z,3.99
2019-02-25T13:29:36.303Z,4.07
2019-02-25T13:30:46.326Z,4.1
2019-02-25T13:31:56.083Z,4.28
2019-02-25T13:33:06.221Z,4.27
2019-02-25T13:34:16.223Z,4.53
2019-02-25T13:35:26.225Z,4.58
2019-02-25T13:36:36.245Z,4.57
2019-02-25T13:37:46.358Z,4.7
2019-02-25T13:38:56.508Z,4.74
2019-02-25T13:40:06.556Z,4.74
2019-02-25T13:41:16.597Z,4.79
2019-02-25T13:42:26.446Z,4.86
2019-02-25T13:43:36.474Z,4.92
2019-02-25T13:44:46.542Z,4.87
2019-02-25T13:45:56.635Z,4.95
2019-02-25T13:47:06.718Z,4.9
2019-02-25T13:48:16.813Z,4.9
2019-02-25T13:49:26.973Z,4.95
2019-02-25T13:50:37.044Z,5.02
2019-02-25T13:51:47.118Z,5.13
2019-02-25T13:52:57.199Z,5.2
2019-02-25T13:54:07.340Z,5.37
2019-02-25T13:55:17.487Z,5.43
2019-02-25T13:56:27.566Z,5.58
2019-02-25T13:57:37.614Z,5.7
2019-02-25T13:58:47.655Z,5.79
2019-02-25T13:59:57.673Z,5.98
2019-02-25T14:01:08.456Z,6.16
2019-02-25T14:02:18.514Z,6.41
2019-02-25T14:03:28.324Z,6.62
2019-02-25T14:04:38.346Z,7.01
2019-02-25T14:05:48.701Z,7.18
2019-02-25T14:06:58.854Z,7.44
2019-02-25T14:08:08.903Z,7.8
2019-02-25T14:09:18.925Z,7.67
2019-02-25T14:10:29.223Z,7.61
2019-02-25T14:11:39.732Z,7.37
2019-02-25T14:12:50.554Z,7.14
2019-02-25T14:14:01.482Z,7.1
2019-02-25T14:15:12.014Z,6.89
2019-02-25T14:16:22.453Z,6.77
2019-02-25T14:17:32.634Z,6.97
2019-02-25T14:18:42.870Z,6.96
2019-02-25T14:19:54.505Z,7.08
2019-02-25T14:21:04.502Z,7.08
2019-02-25T14:22:14.786Z,6.92
2019-02-25T14:23:26.394Z,6.78
2019-02-25T14:24:38.504Z,6.77
2019-02-25T14:25:50.413Z,6.78
2019-02-25T14:27:04.278Z,6.96
2019-02-25T14:28:16.927Z,7.08
2019-02-25T14:29:31.228Z,7
